Time;durP1;ratioP1;P1;durP2;ratioP2;P2;SDS_P1;SDS_P2;PMS_P1;PMS_P2;Temp;Humidity;BMP_temperature;BMP_pressure;BME280_temperature;BME280_humidity;BME280_pressure;Samples;Min_cycle;Max_cycle;Signal;HPM_P1;HPM_P2
2023/03/25 00:00:06;;;;;;;5.90;4.30;;;;;;;12.73;100.00;97831.55;109638;1250;59805;-75
2023/03/25 00:02:52;;;;;;;7.10;5.70;;;;;;;12.73;100.00;97832.27;109611;1250;69262;-75
2023/03/25 00:05:20;;;;;;;7.80;5.20;;;;;;;12.74;100.00;97825.39;109603;1250;59914;-75
2023/03/25 00:07:50;;;;;;;5.10;4.20;;;;;;;12.77;100.00;97818.02;109639;1250;63872;-75
2023/03/25 00:10:17;;;;;;;6.10;4.00;;;;;;;12.80;100.00;97815.48;109591;1250;59984;-74
2023/03/25 00:12:44;;;;;;;4.90;4.10;;;;;;;12.82;100.00;97823.61;109695;1250;59822;-76
2023/03/25 00:15:12;;;;;;;5.70;4.40;;;;;;;12.85;100.00;97821.38;109611;1250;67510;-75
2023/03/25 00:17:39;;;;;;;7.40;5.00;;;;;;;12.88;100.00;97828.04;109646;1250;60724;-74
2023/03/25 00:20:10;;;;;;;4.50;3.40;;;;;;;12.90;100.00;97829.06;109612;1250;63248;-75
2023/03/25 00:22:39;;;;;;;5.50;4.50;;;;;;;12.92;100.00;97820.67;109658;1250;59825;-75
2023/03/25 00:25:16;;;;;;;6.20;5.10;;;;;;;12.94;100.00;97818.21;109623;1250;59724;-74
2023/03/25 00:27:45;;;;;;;5.10;3.80;;;;;;;12.95;100.00;97816.85;109633;1250;68260;-75
2023/03/25 00:30:12;;;;;;;2.90;2.60;;;;;;;12.95;100.00;97820.19;109637;1251;61015;-75
2023/03/25 00:32:39;;;;;;;3.10;2.80;;;;;;;12.96;100.00;97825.52;109302;1250;71813;-75
2023/03/25 00:35:07;;;;;;;3.40;2.70;;;;;;;12.94;100.00;97830.63;109636;1250;59785;-75
2023/03/25 00:37:33;;;;;;;3.20;2.90;;;;;;;12.93;100.00;97829.52;109414;1255;59805;-75
2023/03/25 00:40:00;;;;;;;3.80;2.80;;;;;;;12.94;100.00;97829.08;109623;1250;67869;-77
2023/03/25 00:42:27;;;;;;;3.30;3.00;;;;;;;12.94;100.00;97832.40;109629;1250;61072;-75
2023/03/25 00:44:54;;;;;;;3.70;2.60;;;;;;;12.94;100.00;97826.91;109661;1250;63829;-75
2023/03/25 00:47:20;;;;;;;5.40;4.00;;;;;;;12.93;100.00;97817.60;109609;1250;59914;-76
2023/03/25 00:49:48;;;;;;;4.90;3.60;;;;;;;12.91;100.00;97818.51;109610;1250;59890;-75
2023/03/25 00:52:15;;;;;;;6.20;3.60;;;;;;;12.88;100.00;97824.83;109654;1250;66453;-75
2023/03/25 00:54:42;;;;;;;6.60;5.00;;;;;;;12.86;100.00;97823.75;109673;1250;60787;-75
2023/03/25 00:57:08;;;;;;;6.70;5.00;;;;;;;12.84;100.00;97828.27;109647;1250;64665;-75
2023/03/25 00:59:35;;;;;;;4.30;3.90;;;;;;;12.83;100.00;97831.58;109632;1250;60038;-75
2023/03/25 01:02:02;;;;;;;5.40;4.10;;;;;;;12.83;100.00;97825.52;109652;1250;59687;-75
2023/03/25 01:04:29;;;;;;;5.00;4.30;;;;;;;12.82;100.00;97826.27;109605;1250;66438;-75
2023/03/25 01:06:55;;;;;;;4.00;3.60;;;;;;;12.82;100.00;97820.80;109303;1250;60176;-75
2023/03/25 01:09:22;;;;;;;4.60;3.20;;;;;;;12.82;100.00;97827.92;109608;1250;65034;-75
2023/03/25 01:11:49;;;;;;;6.50;4.20;;;;;;;12.81;100.00;97824.31;109605;1250;59874;-75
2023/03/25 01:14:23;;;;;;;3.80;3.50;;;;;;;12.80;100.00;97824.73;109281;1250;59820;-76
2023/03/25 01:16:49;;;;;;;7.90;4.80;;;;;;;12.78;100.00;97821.16;109643;1250;67526;-75
2023/03/25 01:19:16;;;;;;;4.60;3.70;;;;;;;12.76;100.00;97821.20;109662;1250;60794;-75
2023/03/25 01:21:44;;;;;;;5.90;4.50;;;;;;;12.73;100.00;97821.56;109633;1250;64212;-75
2023/03/25 01:24:13;;;;;;;4.30;3.50;;;;;;;12.69;100.00;97827.84;109391;1250;59825;-75
2023/03/25 01:26:45;;;;;;;3.70;3.40;;;;;;;12.66;100.00;97825.84;109625;1250;59826;-76
2023/03/25 01:29:14;;;;;;;8.30;5.00;;;;;;;12.63;100.00;97823.23;109619;1250;66822;-75
2023/03/25 01:31:42;;;;;;;4.20;3.80;;;;;;;12.62;100.00;97820.38;109643;1250;61081;-75
2023/03/25 01:34:09;;;;;;;4.40;3.50;;;;;;;12.60;100.00;97816.10;109567;1250;64696;-75
2023/03/25 01:36:38;;;;;;;5.00;3.60;;;;;;;12.58;100.00;97815.03;109628;1250;60190;-75
2023/03/25 01:39:07;;;;;;;4.70;3.40;;;;;;;12.56;100.00;97812.36;109631;1250;59680;-75
2023/03/25 01:41:35;;;;;;;6.40;4.40;;;;;;;12.54;100.00;97815.23;109635;1250;66463;-75
2023/03/25 01:44:05;;;;;;;6.90;5.30;;;;;;;12.53;100.00;97817.27;109669;1250;61037;-75
2023/03/25 01:46:32;;;;;;;5.30;4.80;;;;;;;12.52;100.00;97816.95;109601;1250;65061;-75
2023/03/25 01:49:02;;;;;;;6.30;4.30;;;;;;;12.52;100.00;97814.34;109641;1250;60139;-76
2023/03/25 01:51:34;;;;;;;5.80;4.10;;;;;;;12.52;100.00;97815.90;109650;1250;59806;-75
2023/03/25 01:54:01;;;;;;;6.80;5.20;;;;;;;12.51;100.00;97812.27;109635;1250;66593;-76
2023/03/25 01:56:32;;;;;;;7.60;5.20;;;;;;;12.51;100.00;97809.73;109450;1256;60772;-75
2023/03/25 01:59:03;;;;;;;5.20;4.20;;;;;;;12.51;100.00;97817.41;109629;1250;63718;-75
2023/03/25 02:01:31;;;;;;;5.30;4.60;;;;;;;12.50;100.00;97815.73;109537;1250;60276;-76
2023/03/25 02:04:01;;;;;;;5.80;5.20;;;;;;;12.50;100.00;97812.33;109633;1250;59806;-75
2023/03/25 02:06:34;;;;;;;6.00;5.30;;;;;;;12.51;100.00;97808.38;109442;1250;67877;-75
2023/03/25 02:09:07;;;;;;;4.60;4.20;;;;;;;12.51;100.00;97805.67;109617;1250;59823;-76
2023/03/25 02:11:38;;;;;;;5.70;5.20;;;;;;;12.51;100.00;97806.36;109511;1250;64168;-75
2023/03/25 02:14:09;;;;;;;6.30;5.70;;;;;;;12.51;100.00;97810.80;109649;1250;59910;-75
2023/03/25 02:16:41;;;;;;;;;;;;;;;12.52;100.00;97817.55;109609;1250;59863;-75
2023/03/25 02:19:34;;;;;;;6.90;6.20;;;;;;;12.51;100.00;97824.78;109286;1250;67132;-75
2023/03/25 02:22:24;;;;;;;7.20;5.50;;;;;;;12.50;100.00;97830.52;109633;1250;61012;-75
2023/03/25 02:25:17;;;;;;;7.50;6.90;;;;;;;12.48;100.00;97834.40;109672;1250;63685;-76
2023/03/25 02:27:59;;;;;;;7.40;6.70;;;;;;;12.47;100.00;97834.88;109624;1250;59794;-76
2023/03/25 02:30:44;;;;;;;7.40;6.70;;;;;;;12.45;100.00;97840.60;109623;1250;59800;-75
2023/03/25 02:33:41;;;;;;;7.40;6.70;;;;;;;12.43;100.00;97846.34;109678;1250;67479;-75
2023/03/25 02:36:17;;;;;;;7.50;6.80;;;;;;;12.41;100.00;97852.98;109320;1250;60239;-75
2023/03/25 02:39:10;;;;;;;8.30;7.40;;;;;;;12.38;100.00;97855.17;109637;1250;64998;-75
2023/03/25 02:41:52;;;;;;;8.00;7.30;;;;;;;12.35;100.00;97848.52;109642;1250;59963;-76
2023/03/25 02:44:21;;;;;;;7.50;6.70;;;;;;;12.31;100.00;97841.56;109607;1250;59833;-75
2023/03/25 02:46:53;;;;;;;7.00;6.20;;;;;;;12.27;100.00;97836.73;109616;1250;68052;-76
2023/03/25 02:49:49;;;;;;;6.00;5.40;;;;;;;12.24;100.00;97840.98;109697;1250;59800;-75
2023/03/25 02:52:18;;;;;;;5.40;4.80;;;;;;;12.20;100.00;97846.36;109055;1258;65002;-75
2023/03/25 02:54:48;;;;;;;8.50;6.00;;;;;;;12.16;100.00;97845.09;109074;1258;59841;-75
2023/03/25 02:57:18;;;;;;;6.30;5.00;;;;;;;12.14;100.00;97842.45;108960;1258;59861;-75
2023/03/25 02:59:47;;;;;;;5.30;4.80;;;;;;;12.10;100.00;97841.88;109040;1258;67880;-75
2023/03/25 03:02:16;;;;;;;5.60;4.40;;;;;;;12.06;100.00;97848.86;109051;1258;60242;-76
2023/03/25 03:05:19;;;;;;;3.90;3.50;;;;;;;12.03;100.00;97855.77;108987;1258;64716;-75
2023/03/25 03:07:52;;;;;;;4.80;3.90;;;;;;;11.96;100.00;97858.27;109015;1258;60199;-75
2023/03/25 03:10:25;;;;;;;4.90;4.20;;;;;;;11.91;100.00;97859.70;109038;1259;59920;-76
2023/03/25 03:13:18;;;;;;;4.40;3.60;;;;;;;11.84;100.00;97871.83;109008;1257;67849;-75
2023/03/25 03:16:05;;;;;;;6.20;3.80;;;;;;;11.75;100.00;97877.96;109025;1258;60757;-75
2023/03/25 03:19:20;;;;;;;4.70;3.20;;;;;;;11.66;100.00;97884.96;109004;1258;65232;-75
2023/03/25 03:21:46;;;;;;;3.40;2.90;;;;;;;11.59;100.00;97891.52;108816;1262;59900;-76
2023/03/25 03:24:20;;;;;;;3.40;2.90;;;;;;;11.52;100.00;97890.68;108801;1263;59881;-76
2023/03/25 03:27:06;;;;;;;3.70;3.00;;;;;;;11.44;100.00;97888.55;108758;1262;67535;-75
2023/03/25 03:29:43;;;;;;;4.10;2.60;;;;;;;11.34;100.00;97891.04;108921;1257;60777;-75
2023/03/25 03:32:19;;;;;;;3.60;2.80;;;;;;;11.22;100.00;97891.38;108972;1257;65027;-75
2023/03/25 03:34:51;;;;;;;3.40;2.50;;;;;;;11.08;100.00;97897.19;109015;1257;59834;-75
2023/03/25 03:37:25;;;;;;;4.40;2.90;;;;;;;10.97;100.00;97897.95;109013;1257;59908;-75
2023/03/25 03:39:54;;;;;;;5.20;3.20;;;;;;;10.89;100.00;97899.58;109032;1257;67989;-75
2023/03/25 03:42:35;;;;;;;3.30;2.50;;;;;;;10.83;100.00;97902.36;109009;1257;60792;-75
2023/03/25 03:45:12;;;;;;;4.70;3.50;;;;;;;10.77;100.00;97908.40;109017;1258;64739;-75
2023/03/25 03:47:46;;;;;;;4.00;3.10;;;;;;;10.71;100.00;97908.16;108984;1257;59837;-75
2023/03/25 03:50:16;;;;;;;4.20;3.00;;;;;;;10.67;100.00;97909.21;109022;1259;59810;-75
2023/03/25 03:52:50;;;;;;;5.00;3.60;;;;;;;10.63;100.00;97910.68;109009;1257;67954;-75
2023/03/25 03:55:27;;;;;;;5.70;3.80;;;;;;;10.61;100.00;97911.88;109014;1257;59923;-76
2023/03/25 03:58:00;;;;;;;6.00;3.80;;;;;;;10.62;100.00;97907.58;109177;1250;64769;-75
2023/03/25 04:00:44;;;;;;;5.90;3.80;;;;;;;10.62;100.00;97905.27;109637;1250;59731;-76
2023/03/25 04:03:27;;;;;;;4.80;3.70;;;;;;;10.62;100.00;97907.05;109633;1251;59804;-75
2023/03/25 04:06:06;;;;;;;6.50;4.00;;;;;;;10.62;100.00;97910.73;109684;1250;67522;-75
2023/03/25 04:08:41;;;;;;;5.70;3.90;;;;;;;10.62;100.00;97914.29;109693;1250;59988;-76
2023/03/25 04:11:17;;;;;;;6.70;4.50;;;;;;;10.59;100.00;97915.05;109660;1250;64716;-76
2023/03/25 04:13:48;;;;;;;5.90;4.10;;;;;;;10.58;100.00;97913.95;109634;1250;59914;-75
2023/03/25 04:16:15;;;;;;;6.30;4.40;;;;;;;10.57;100.00;97912.09;109602;1250;59966;-76
2023/03/25 04:18:42;;;;;;;7.90;5.70;;;;;;;10.54;100.00;97910.14;109659;1250;67513;-75
2023/03/25 04:21:09;;;;;;;6.80;6.10;;;;;;;10.53;100.00;97912.20;109339;1250;61236;-75
2023/03/25 04:23:36;;;;;;;8.80;7.50;;;;;;;10.51;100.00;97916.09;109713;1250;64064;-75
2023/03/25 04:26:03;;;;;;;13.30;10.40;;;;;;;10.50;100.00;97917.98;109645;1250;59740;-75
2023/03/25 04:28:30;;;;;;;13.20;11.50;;;;;;;10.48;100.00;97917.22;109632;1250;59843;-75
2023/03/25 04:30:59;;;;;;;12.40;10.90;;;;;;;10.47;100.00;97924.05;109681;1250;68224;-75
2023/03/25 04:33:28;;;;;;;12.80;10.90;;;;;;;10.45;100.00;97932.44;109673;1250;61098;-75
2023/03/25 04:35:55;;;;;;;12.30;10.40;;;;;;;10.40;100.00;97936.44;109630;1250;63720;-76
2023/03/25 04:38:22;;;;;;;13.30;10.00;;;;;;;10.35;100.00;97934.34;109664;1250;59799;-76
2023/03/25 04:40:48;;;;;;;13.90;10.00;;;;;;;10.32;100.00;97935.23;109683;1250;59817;-76
2023/03/25 04:43:16;;;;;;;14.00;9.50;;;;;;;10.30;100.00;97935.45;109634;1254;66446;-76
2023/03/25 04:45:47;;;;;;;14.60;8.90;;;;;;;10.27;100.00;97937.77;109285;1250;60063;-75
2023/03/25 04:48:28;;;;;;;14.60;9.10;;;;;;;10.24;100.00;97939.23;109605;1250;64116;-75
2023/03/25 04:50:57;;;;;;;12.70;9.40;;;;;;;10.21;100.00;97934.16;109359;1250;59837;-76
2023/03/25 04:53:27;;;;;;;16.30;11.00;;;;;;;10.20;100.00;97939.62;109689;1250;59847;-75
2023/03/25 04:55:54;;;;;;;;;;;;;;;10.18;100.00;97935.73;109344;1250;68136;-76
2023/03/25 04:58:21;;;;;;;14.80;10.30;;;;;;;10.15;100.00;97936.48;109635;1250;60018;-76
2023/03/25 05:00:50;;;;;;;16.20;10.60;;;;;;;10.14;100.00;97943.51;109704;1250;64640;-74
2023/03/25 05:03:23;;;;;;;13.50;11.00;;;;;;;10.13;100.00;97941.98;109640;1250;59748;-75
2023/03/25 05:05:50;;;;;;;12.60;9.90;;;;;;;10.13;100.00;97941.75;109673;1250;59851;-74
2023/03/25 05:08:17;;;;;;;10.40;8.20;;;;;;;10.14;100.00;97943.30;109418;1250;68217;-76
2023/03/25 05:10:43;;;;;;;10.20;7.50;;;;;;;10.14;100.00;97946.69;109664;1250;60027;-75
2023/03/25 05:13:10;;;;;;;12.40;11.10;;;;;;;10.15;100.00;97951.59;109692;1250;64181;-75
2023/03/25 05:15:40;;;;;;;21.00;19.00;;;;;;;10.15;100.00;97952.29;109653;1250;59910;-75
2023/03/25 05:18:14;;;;;;;;;;;;;;;10.14;100.00;97954.63;109723;1254;59812;-76
2023/03/25 05:20:42;;;;;;;14.60;13.10;;;;;;;10.13;100.00;97956.67;109658;1250;68241;-75
2023/03/25 05:23:14;;;;;;;14.30;12.80;;;;;;;10.14;100.00;97952.00;109651;1250;59839;-75
2023/03/25 05:25:42;;;;;;;12.90;11.60;;;;;;;10.18;100.00;97953.98;109503;1250;64733;-75
2023/03/25 05:28:12;;;;;;;13.80;12.40;;;;;;;10.22;100.00;97958.63;109641;1250;59764;-75
2023/03/25 05:30:41;;;;;;;15.00;12.20;;;;;;;10.25;100.00;97962.09;109673;1250;59813;-77
2023/03/25 05:33:14;;;;;;;13.50;12.10;;;;;;;10.26;100.00;97963.93;109608;1250;67563;-75
2023/03/25 05:35:41;;;;;;;12.70;11.30;;;;;;;10.27;100.00;97967.09;109636;1250;61141;-75
2023/03/25 05:38:11;;;;;;;13.70;11.30;;;;;;;10.28;100.00;97972.54;109673;1250;64045;-75
2023/03/25 05:40:39;;;;;;;12.60;10.80;;;;;;;10.28;100.00;97973.55;109653;1250;59749;-76
2023/03/25 05:43:06;;;;;;;10.40;9.40;;;;;;;10.29;100.00;97969.90;109629;1250;59858;-75
2023/03/25 05:45:36;;;;;;;10.30;8.30;;;;;;;10.33;100.00;97966.06;109656;1250;68066;-76
2023/03/25 05:48:04;;;;;;;10.50;7.60;;;;;;;10.39;100.00;97962.61;109661;1250;61066;-76
2023/03/25 05:50:30;;;;;;;9.90;8.10;;;;;;;10.45;100.00;97954.28;109407;1250;63766;-76
2023/03/25 05:52:58;;;;;;;11.00;8.20;;;;;;;10.52;100.00;97945.68;109642;1250;59692;-76
2023/03/25 05:55:26;;;;;;;12.10;10.20;;;;;;;10.59;100.00;97955.91;109634;1250;59694;-76
2023/03/25 05:57:52;;;;;;;12.40;10.30;;;;;;;10.66;100.00;97958.02;109356;1250;67828;-76
2023/03/25 06:00:23;;;;;;;11.70;10.10;;;;;;;10.76;100.00;97957.38;109708;1250;60773;-76
2023/03/25 06:02:50;;;;;;;12.70;9.10;;;;;;;10.82;100.00;97960.54;109569;1250;65070;-76
2023/03/25 06:05:22;;;;;;;10.20;9.10;;;;;;;10.85;100.00;97961.74;109671;1250;59790;-75
2023/03/25 06:07:54;;;;;;;10.70;9.00;;;;;;;10.87;100.00;97964.75;109664;1250;59821;-75
2023/03/25 06:10:21;;;;;;;11.10;8.70;;;;;;;10.90;100.00;97970.92;109534;1250;67610;-76
2023/03/25 06:12:48;;;;;;;11.40;9.30;;;;;;;10.91;100.00;97970.06;109684;1250;60963;-76
2023/03/25 06:15:32;;;;;;;11.60;9.90;;;;;;;10.95;100.00;97970.98;109600;1250;63989;-76
2023/03/25 06:17:59;;;;;;;10.70;9.50;;;;;;;11.01;100.00;97972.87;109635;1250;59788;-76
2023/03/25 06:20:25;;;;;;;12.40;10.50;;;;;;;11.05;100.00;97969.80;109725;1250;59738;-76
2023/03/25 06:22:52;;;;;;;10.90;9.60;;;;;;;11.12;100.00;97971.20;109670;1250;66768;-76
2023/03/25 06:25:23;;;;;;;12.30;9.80;;;;;;;11.17;100.00;97980.14;109635;1250;59795;-75
2023/03/25 06:27:49;;;;;;;14.30;11.20;;;;;;;11.26;100.00;97981.48;109413;1250;64317;-77
2023/03/25 06:30:19;;;;;;;14.10;12.50;;;;;;;11.38;100.00;97979.63;109528;1250;59925;-75
2023/03/25 06:32:49;;;;;;;13.00;11.80;;;;;;;11.48;100.00;97979.98;109672;1250;59841;-75
2023/03/25 06:35:18;;;;;;;13.30;12.00;;;;;;;11.58;100.00;97974.46;109675;1250;66797;-75
2023/03/25 06:37:46;;;;;;;16.70;13.60;;;;;;;11.70;100.00;97978.02;109622;1250;60231;-75
2023/03/25 06:40:14;;;;;;;17.90;13.60;;;;;;;11.82;100.00;97978.46;109614;1250;65062;-75
2023/03/25 06:42:41;;;;;;;18.10;14.60;;;;;;;11.93;100.00;97974.49;109598;1250;59782;-76
2023/03/25 06:45:08;;;;;;;17.20;14.30;;;;;;;12.02;100.00;97978.40;109672;1250;60063;-75
2023/03/25 06:47:35;;;;;;;19.00;14.40;;;;;;;12.12;100.00;97980.09;109658;1250;66929;-75
2023/03/25 06:50:06;;;;;;;17.10;14.00;;;;;;;12.20;100.00;97988.26;109704;1250;61050;-75
2023/03/25 06:52:35;;;;;;;13.60;12.00;;;;;;;12.24;100.00;97991.98;109685;1250;63997;-75
2023/03/25 06:55:03;;;;;;;14.50;11.80;;;;;;;12.27;100.00;97993.28;109253;1250;59745;-75
2023/03/25 06:57:30;;;;;;;13.20;11.80;;;;;;;12.32;100.00;97991.45;109302;1250;59782;-76
2023/03/25 06:59:56;;;;;;;13.60;10.30;;;;;;;12.34;100.00;97986.12;109653;1250;67665;-75
2023/03/25 07:02:23;;;;;;;11.30;9.50;;;;;;;12.39;100.00;97984.10;109691;1250;60813;-75
2023/03/25 07:04:50;;;;;;;12.10;10.90;;;;;;;12.43;100.00;97982.44;109690;1250;63629;-75
2023/03/25 07:07:16;;;;;;;8.50;7.70;;;;;;;12.48;100.00;97976.65;109670;1250;59837;-75
2023/03/25 07:09:43;;;;;;;8.30;6.90;;;;;;;12.52;100.00;97973.25;109766;1250;59800;-76
2023/03/25 07:12:09;;;;;;;9.50;6.70;;;;;;;12.53;100.00;97966.75;109282;1251;66900;-75
2023/03/25 07:14:36;;;;;;;7.90;6.10;;;;;;;12.55;100.00;97963.52;109642;1255;61046;-76
2023/03/25 07:17:02;;;;;;;5.80;4.90;;;;;;;12.59;100.00;97962.08;109655;1250;65045;-74
2023/03/25 07:19:29;;;;;;;7.10;4.90;;;;;;;12.60;100.00;97960.25;109475;1254;59810;-75
2023/03/25 07:21:56;;;;;;;6.80;4.20;;;;;;;12.57;100.00;97958.05;109672;1250;59799;-74
2023/03/25 07:24:22;;;;;;;8.80;3.80;;;;;;;12.55;100.00;97956.09;109694;1250;67541;-75
2023/03/25 07:26:51;;;;;;;5.70;4.20;;;;;;;12.48;100.00;97955.55;109545;1250;60928;-75
2023/03/25 07:29:18;;;;;;;5.90;4.40;;;;;;;12.46;100.00;97953.70;109687;1250;63841;-76
2023/03/25 07:31:45;;;;;;;5.30;3.50;;;;;;;12.42;100.00;97946.75;109610;1250;59811;-76
2023/03/25 07:34:12;;;;;;;6.80;4.10;;;;;;;12.43;100.00;97941.31;109633;1251;60064;-76
2023/03/25 07:36:38;;;;;;;7.10;3.30;;;;;;;12.53;100.00;97942.30;109619;1250;68005;-76
2023/03/25 07:39:06;;;;;;;6.20;3.80;;;;;;;12.65;100.00;97942.65;109659;1255;61643;-74
2023/03/25 07:41:33;;;;;;;6.10;3.30;;;;;;;12.73;100.00;97936.55;109621;1250;65141;-76
2023/03/25 07:44:00;;;;;;;3.80;3.30;;;;;;;12.77;100.00;97937.11;109599;1251;60040;-76
2023/03/25 07:46:27;;;;;;;5.40;3.20;;;;;;;12.83;100.00;97945.44;109680;1250;59808;-76
2023/03/25 07:48:53;;;;;;;5.10;3.70;;;;;;;12.96;100.00;97946.38;109619;1251;67920;-76
2023/03/25 07:51:21;;;;;;;4.70;3.90;;;;;;;13.16;100.00;97942.70;109635;1250;59901;-76
2023/03/25 07:53:47;;;;;;;3.80;3.40;;;;;;;13.39;100.00;97937.86;109321;1251;65443;-76
2023/03/25 07:56:14;;;;;;;4.10;3.60;;;;;;;13.60;100.00;97934.41;109625;1251;59897;-76
2023/03/25 07:58:43;;;;;;;4.20;3.70;;;;;;;13.78;100.00;97932.52;109674;1252;59774;-76
2023/03/25 08:01:09;;;;;;;3.70;3.20;;;;;;;13.87;99.53;97933.80;109627;1251;67565;-76
2023/03/25 08:03:38;;;;;;;4.30;3.70;;;;;;;13.97;99.65;97938.16;109281;1251;60745;-76
2023/03/25 08:06:05;;;;;;;3.70;3.20;;;;;;;14.12;99.61;97939.86;109601;1251;65402;-76
2023/03/25 08:08:32;;;;;;;3.50;3.20;;;;;;;14.31;97.53;97934.70;109584;1251;59831;-76
2023/03/25 08:11:00;;;;;;;4.80;3.40;;;;;;;14.42;95.62;97937.64;109604;1254;59807;-76
2023/03/25 08:13:27;;;;;;;3.80;3.20;;;;;;;14.44;93.81;97938.73;109673;1250;67498;-76
2023/03/25 08:15:53;;;;;;;5.20;3.60;;;;;;;14.42;92.88;97939.81;109646;1250;60819;-76
2023/03/25 08:18:20;;;;;;;5.00;3.60;;;;;;;14.37;93.01;97939.59;109402;1251;64764;-75
2023/03/25 08:20:49;;;;;;;4.30;3.70;;;;;;;14.28;92.05;97938.58;109635;1250;59846;-76
2023/03/25 08:23:18;;;;;;;3.30;3.00;;;;;;;14.17;90.06;97935.90;109657;1250;59936;-76
2023/03/25 08:25:48;;;;;;;4.50;3.40;;;;;;;14.13;90.04;97932.70;109642;1250;66497;-76
2023/03/25 08:28:21;;;;;;;6.10;3.20;;;;;;;14.16;90.29;97930.10;109639;1250;60766;-76
2023/03/25 08:30:53;;;;;;;3.80;3.40;;;;;;;14.30;91.02;97930.13;109627;1251;65055;-76
2023/03/25 08:33:25;;;;;;;3.80;3.10;;;;;;;14.47;91.45;97928.91;109650;1250;59809;-76
2023/03/25 08:35:52;;;;;;;5.10;3.60;;;;;;;14.63;90.09;97933.44;109423;1256;59827;-75
2023/03/25 08:38:20;;;;;;;5.20;3.50;;;;;;;14.73;88.61;97935.83;109668;1251;67628;-76
2023/03/25 08:40:47;;;;;;;3.50;3.10;;;;;;;14.84;87.99;97937.22;109423;1251;60948;-76
2023/03/25 08:43:14;;;;;;;5.50;3.40;;;;;;;14.98;88.33;97936.66;109613;1250;65433;-76
2023/03/25 08:45:40;;;;;;;3.90;3.40;;;;;;;15.16;86.64;97934.64;109621;1254;59780;-76
2023/03/25 08:48:07;;;;;;;3.60;3.30;;;;;;;15.31;85.86;97934.73;109507;1250;59987;-76
2023/03/25 08:50:33;;;;;;;4.30;3.30;;;;;;;15.48;84.60;97929.09;109605;1251;67457;-76
2023/03/25 08:53:25;;;;;;;3.60;3.20;;;;;;;15.61;82.71;97928.27;109654;1250;61040;-76
2023/03/25 08:55:53;;;;;;;3.80;3.30;;;;;;;15.72;80.92;97924.62;109595;1250;65217;-76
2023/03/25 08:58:21;;;;;;;3.80;3.40;;;;;;;15.80;80.99;97921.77;109628;1249;59784;-76
2023/03/25 09:00:53;;;;;;;3.60;3.20;;;;;;;15.95;81.52;97915.41;109636;1251;59818;-75
2023/03/25 09:03:23;;;;;;;4.90;4.00;;;;;;;16.02;79.65;97915.33;109678;1251;66909;-74
2023/03/25 09:05:50;;;;;;;6.10;3.40;;;;;;;16.00;78.95;97911.23;109644;1250;60140;-76
2023/03/25 09:08:16;;;;;;;6.50;3.90;;;;;;;16.08;78.97;97908.20;109648;1251;65010;-76
2023/03/25 09:10:43;;;;;;;4.60;3.00;;;;;;;16.14;77.43;97904.55;109605;1251;59781;-76
2023/03/25 09:13:09;;;;;;;3.90;3.20;;;;;;;16.15;77.23;97894.64;109698;1250;59984;-76
2023/03/25 09:15:36;;;;;;;5.40;3.30;;;;;;;16.24;76.54;97896.52;109438;1251;67941;-76
2023/03/25 09:18:04;;;;;;;5.40;4.00;;;;;;;16.37;75.74;97899.17;109695;1251;60792;-74
2023/03/25 09:20:32;;;;;;;4.90;3.10;;;;;;;16.46;75.68;97902.91;109659;1250;64186;-75
2023/03/25 09:22:59;;;;;;;5.10;3.70;;;;;;;16.52;75.68;97904.10;109631;1250;59815;-75
2023/03/25 09:25:25;;;;;;;5.10;3.20;;;;;;;16.60;74.76;97909.58;109612;1254;59822;-74
2023/03/25 09:27:52;;;;;;;3.70;2.90;;;;;;;16.66;74.42;97912.34;109391;1250;65202;-75
2023/03/25 09:30:19;;;;;;;5.50;3.40;;;;;;;16.60;72.71;97912.30;109619;1251;59809;-75
2023/03/25 09:32:45;;;;;;;3.20;2.90;;;;;;;16.49;72.54;97909.61;109614;1251;65060;-75
2023/03/25 09:35:12;;;;;;;5.10;3.20;;;;;;;16.47;72.65;97908.36;109638;1251;59829;-75
2023/03/25 09:37:38;;;;;;;4.90;3.50;;;;;;;16.48;72.86;97908.83;109661;1250;59878;-75
2023/03/25 09:40:06;;;;;;;4.40;3.40;;;;;;;16.48;72.69;97907.39;109641;1250;66522;-74
2023/03/25 09:42:57;;;;;;;5.00;2.80;;;;;;;16.47;72.94;97904.60;109643;1251;60350;-75
2023/03/25 09:45:43;;;;;;;3.70;2.90;;;;;;;16.48;72.59;97898.95;109637;1251;65269;-74
2023/03/25 09:48:20;;;;;;;5.00;2.90;;;;;;;16.43;71.45;97900.39;109644;1250;59795;-75
2023/03/25 09:50:47;;;;;;;4.20;3.00;;;;;;;16.31;70.94;97896.67;109645;1250;59836;-76
2023/03/25 09:53:39;;;;;;;5.80;3.50;;;;;;;16.16;69.75;97890.98;109688;1251;68051;-75
2023/03/25 09:56:12;;;;;;;4.00;3.00;;;;;;;16.04;70.55;97885.61;109123;1258;60220;-75
2023/03/25 09:58:43;;;;;;;4.20;2.80;;;;;;;16.04;70.88;97884.58;109122;1259;65210;-75
2023/03/25 10:01:21;;;;;;;4.80;2.70;;;;;;;16.11;70.37;97878.77;108980;1258;59885;-75
2023/03/25 10:04:00;;;;;;;3.00;2.20;;;;;;;16.32;69.68;97874.37;108974;1259;59942;-76
2023/03/25 10:06:30;;;;;;;4.00;1.90;;;;;;;16.56;68.90;97871.16;109039;1259;67082;-76
2023/03/25 10:09:12;;;;;;;4.00;1.60;;;;;;;16.80;67.13;97866.95;108890;1260;60826;-75
2023/03/25 10:11:54;;;;;;;3.40;1.80;;;;;;;17.05;66.05;97864.88;109039;1259;64204;-75
2023/03/25 10:14:27;;;;;;;4.70;1.70;;;;;;;17.33;66.86;97855.27;108995;1260;59838;-75
2023/03/25 10:17:12;;;;;;;3.30;1.90;;;;;;;17.59;65.46;97856.21;109039;1258;59955;-75
2023/03/25 10:19:57;;;;;;;3.10;2.20;;;;;;;17.65;64.57;97847.99;109024;1260;66983;-76
2023/03/25 10:23:04;;;;;;;2.40;1.80;;;;;;;17.71;64.39;97847.09;109027;1258;61230;-76
2023/03/25 10:25:37;;;;;;;5.10;2.80;;;;;;;17.92;63.63;97848.70;108758;1263;64985;-77
2023/03/25 10:28:07;;;;;;;3.50;2.30;;;;;;;18.17;63.29;97842.38;108766;1262;59888;-75
2023/03/25 10:30:40;;;;;;;2.40;1.50;;;;;;;18.25;61.56;97841.45;108791;1262;59702;-75
2023/03/25 10:33:22;;;;;;;5.10;1.70;;;;;;;18.33;61.47;97839.80;108916;1257;67586;-75
2023/03/25 10:35:49;;;;;;;4.80;2.20;;;;;;;18.46;61.99;97836.16;109123;1257;60723;-75
2023/03/25 10:38:47;;;;;;;3.20;2.20;;;;;;;18.61;62.38;97827.67;102482;1290;605083;-74
2023/03/25 10:41:26;;;;;;;6.00;2.70;;;;;;;18.75;62.64;97821.32;104818;1273;59268;-75
2023/03/25 10:43:53;;;;;;;3.60;2.50;;;;;;;18.82;62.80;97819.56;105091;1263;59261;-75
2023/03/25 10:46:32;;;;;;;4.00;2.40;;;;;;;18.88;62.11;97815.02;105036;1267;63926;-74
2023/03/25 10:48:59;;;;;;;2.80;2.00;;;;;;;18.92;62.36;97810.69;105091;1264;60645;-75
2023/03/25 10:51:28;;;;;;;2.30;1.90;;;;;;;19.00;62.38;97802.52;104873;1268;192718;-75
2023/03/25 10:53:56;;;;;;;;;;;;;;;19.12;62.01;97798.10;105260;1266;59317;-75
2023/03/25 10:56:30;;;;;;;2.10;1.20;;;;;;;19.18;61.61;97797.61;105234;1266;59351;-75
2023/03/25 10:58:59;;;;;;;1.80;1.70;;;;;;;19.11;55.98;97798.20;108941;1260;64922;-74
2023/03/25 11:01:38;;;;;;;4.60;1.10;;;;;;;18.83;55.61;97799.21;108993;1260;59990;-75
2023/03/25 11:04:15;;;;;;;2.20;1.20;;;;;;;18.77;56.00;97801.14;108911;1260;64795;-75
2023/03/25 11:06:45;;;;;;;2.90;1.10;;;;;;;18.99;55.99;97795.77;108713;1261;57455;-75
2023/03/25 11:09:14;;;;;;;;;;;;;;;19.18;53.52;97798.05;108963;1261;57335;-75
2023/03/25 11:11:41;;;;;;;1.20;0.80;;;;;;;19.07;53.06;97793.05;108962;1260;65477;-75
2023/03/25 11:14:09;;;;;;;1.30;1.00;;;;;;;18.87;52.17;97789.83;109102;1257;60984;-76
2023/03/25 11:16:40;;;;;;;2.30;1.10;;;;;;;18.79;52.16;97796.98;109112;1257;65071;-75
2023/03/25 11:19:16;;;;;;;1.40;0.80;;;;;;;18.69;52.04;97796.48;109089;1257;57431;-75
2023/03/25 11:21:47;;;;;;;2.20;0.90;;;;;;;18.44;51.23;97805.63;109110;1257;57414;-75
2023/03/25 11:24:17;;;;;;;2.40;0.90;;;;;;;18.06;50.64;97806.99;109114;1257;65339;-75
2023/03/25 11:26:47;;;;;;;6.40;1.10;;;;;;;17.80;50.97;97807.34;109014;1257;61004;-76
2023/03/25 11:29:17;;;;;;;3.40;1.10;;;;;;;17.71;51.16;97807.99;108995;1257;65163;-77
2023/03/25 11:31:55;;;;;;;2.50;0.90;;;;;;;17.62;51.86;97803.97;109091;1257;57323;-75
2023/03/25 11:34:23;;;;;;;2.00;0.80;;;;;;;17.61;51.92;97805.96;109083;1257;57416;-76